sensor_id;sensor_type;location;lat;lon;timestamp;pressure;altitude;pressure_sealevel;temperature;humidity
32324;BME280;25666;44.350;9.222;2022-12-24T00:01:24;101536.22;;;12.62;100.00
32324;BME280;25666;44.350;9.222;2022-12-24T00:03:49;101536.06;;;12.58;100.00
32324;BME280;25666;44.350;9.222;2022-12-24T00:06:18;101542.63;;;12.62;100.00
32324;BME280;25666;44.350;9.222;2022-12-24T00:08:43;101534.44;;;12.57;100.00
32324;BME280;25666;44.350;9.222;2022-12-24T00:11:09;101523.72;;;12.59;100.00
32324;BME280;25666;44.350;9.222;2022-12-24T00:13:34;101524.94;;;12.70;100.00
32324;BME280;25666;44.350;9.222;2022-12-24T00:16:00;101525.06;;;12.74;100.00
32324;BME280;25666;44.350;9.222;2022-12-24T00:18:26;101528.88;;;12.69;100.00
32324;BME280;25666;44.350;9.222;2022-12-24T00:20:53;101538.59;;;12.51;100.00
32324;BME280;25666;44.350;9.222;2022-12-24T00:23:20;101539.84;;;12.42;100.00
32324;BME280;25666;44.350;9.222;2022-12-24T00:25:46;101535.94;;;12.55;100.00
32324;BME280;25666;44.350;9.222;2022-12-24T00:28:12;101519.19;;;12.55;100.00
32324;BME280;25666;44.350;9.222;2022-12-24T00:30:39;101504.06;;;12.56;100.00
32324;BME280;25666;44.350;9.222;2022-12-24T00:33:05;101505.78;;;12.48;100.00
32324;BME280;25666;44.350;9.222;2022-12-24T00:35:35;101517.66;;;12.45;100.00
32324;BME280;25666;44.350;9.222;2022-12-24T00:38:01;101527.03;;;12.41;100.00
32324;BME280;25666;44.350;9.222;2022-12-24T00:40:28;101529.63;;;12.46;100.00
32324;BME280;25666;44.350;9.222;2022-12-24T00:42:54;101535.50;;;12.53;100.00
32324;BME280;25666;44.350;9.222;2022-12-24T00:45:20;101533.16;;;12.55;100.00
32324;BME280;25666;44.350;9.222;2022-12-24T00:47:46;101538.63;;;12.63;100.00
32324;BME280;25666;44.350;9.222;2022-12-24T00:50:11;101533.88;;;12.64;100.00
32324;BME280;25666;44.350;9.222;2022-12-24T00:52:37;101551.72;;;12.71;100.00
32324;BME280;25666;44.350;9.222;2022-12-24T00:55:02;101540.44;;;12.80;100.00
32324;BME280;25666;44.350;9.222;2022-12-24T00:57:28;101533.09;;;12.75;100.00
32324;BME280;25666;44.350;9.222;2022-12-24T00:59:54;101529.97;;;12.77;100.00
32324;BME280;25666;44.350;9.222;2022-12-24T01:02:19;101526.31;;;12.64;100.00
32324;BME280;25666;44.350;9.222;2022-12-24T01:04:45;101541.69;;;12.70;100.00
32324;BME280;25666;44.350;9.222;2022-12-24T01:07:29;101543.09;;;12.76;100.00
32324;BME280;25666;44.350;9.222;2022-12-24T01:09:54;101541.69;;;12.70;100.00
32324;BME280;25666;44.350;9.222;2022-12-24T01:12:20;101547.03;;;12.75;100.00
32324;BME280;25666;44.350;9.222;2022-12-24T01:14:45;101548.81;;;12.80;100.00
32324;BME280;25666;44.350;9.222;2022-12-24T01:17:11;101546.84;;;12.80;100.00
32324;BME280;25666;44.350;9.222;2022-12-24T01:19:36;101534.97;;;12.83;100.00
32324;BME280;25666;44.350;9.222;2022-12-24T01:22:02;101533.78;;;12.84;100.00
32324;BME280;25666;44.350;9.222;2022-12-24T01:24:28;101534.50;;;12.81;100.00
32324;BME280;25666;44.350;9.222;2022-12-24T01:26:53;101526.72;;;12.87;100.00
32324;BME280;25666;44.350;9.222;2022-12-24T01:29:19;101526.09;;;12.81;100.00
32324;BME280;25666;44.350;9.222;2022-12-24T01:31:44;101525.31;;;12.81;100.00
32324;BME280;25666;44.350;9.222;2022-12-24T01:34:10;101519.72;;;12.81;100.00
32324;BME280;25666;44.350;9.222;2022-12-24T01:36:35;101513.78;;;12.82;100.00
32324;BME280;25666;44.350;9.222;2022-12-24T01:39:02;101499.34;;;12.80;100.00
32324;BME280;25666;44.350;9.222;2022-12-24T01:41:30;101496.88;;;12.67;100.00
32324;BME280;25666;44.350;9.222;2022-12-24T01:44:28;101485.56;;;12.63;100.00
32324;BME280;25666;44.350;9.222;2022-12-24T01:47:10;101482.19;;;12.58;100.00
32324;BME280;25666;44.350;9.222;2022-12-24T01:49:39;101479.78;;;12.68;100.00
32324;BME280;25666;44.350;9.222;2022-12-24T01:52:10;101482.22;;;12.70;100.00
32324;BME280;25666;44.350;9.222;2022-12-24T01:54:46;101496.28;;;12.61;100.00
32324;BME280;25666;44.350;9.222;2022-12-24T01:57:18;101500.19;;;12.48;100.00
32324;BME280;25666;44.350;9.222;2022-12-24T01:59:50;101507.94;;;12.30;100.00
32324;BME280;25666;44.350;9.222;2022-12-24T02:02:16;101499.47;;;12.39;100.00
32324;BME280;25666;44.350;9.222;2022-12-24T02:04:48;101498.19;;;12.37;100.00
32324;BME280;25666;44.350;9.222;2022-12-24T02:07:15;101505.44;;;12.17;100.00
32324;BME280;25666;44.350;9.222;2022-12-24T02:09:41;101508.50;;;12.24;100.00
32324;BME280;25666;44.350;9.222;2022-12-24T02:12:07;101510.59;;;12.27;100.00
32324;BME280;25666;44.350;9.222;2022-12-24T02:14:33;101506.44;;;12.33;100.00
32324;BME280;25666;44.350;9.222;2022-12-24T02:20:51;101519.66;;;12.57;100.00
32324;BME280;25666;44.350;9.222;2022-12-24T02:31:40;101502.69;;;12.62;100.00
32324;BME280;25666;44.350;9.222;2022-12-24T02:34:11;101497.25;;;12.65;100.00
32324;BME280;25666;44.350;9.222;2022-12-24T02:36:41;101501.78;;;12.70;100.00
32324;BME280;25666;44.350;9.222;2022-12-24T02:39:14;101503.25;;;12.55;100.00
32324;BME280;25666;44.350;9.222;2022-12-24T02:41:42;101507.91;;;12.63;100.00
32324;BME280;25666;44.350;9.222;2022-12-24T02:44:29;101526.41;;;12.56;100.00
32324;BME280;25666;44.350;9.222;2022-12-24T02:46:58;101524.22;;;12.61;100.00
32324;BME280;25666;44.350;9.222;2022-12-24T02:49:24;101508.03;;;12.67;100.00
32324;BME280;25666;44.350;9.222;2022-12-24T02:51:50;101516.44;;;12.67;100.00
32324;BME280;25666;44.350;9.222;2022-12-24T02:54:16;101519.22;;;12.67;100.00
32324;BME280;25666;44.350;9.222;2022-12-24T03:07:36;101536.50;;;12.93;100.00
32324;BME280;25666;44.350;9.222;2022-12-24T03:10:16;101525.91;;;12.99;100.00
32324;BME280;25666;44.350;9.222;2022-12-24T03:12:48;101507.63;;;13.01;100.00
32324;BME280;25666;44.350;9.222;2022-12-24T03:15:16;101519.88;;;12.97;100.00
32324;BME280;25666;44.350;9.222;2022-12-24T03:17:45;101518.81;;;13.01;100.00
32324;BME280;25666;44.350;9.222;2022-12-24T03:20:15;101518.22;;;12.96;100.00
32324;BME280;25666;44.350;9.222;2022-12-24T03:22:42;101522.28;;;12.86;100.00
32324;BME280;25666;44.350;9.222;2022-12-24T03:25:07;101535.09;;;12.87;100.00
32324;BME280;25666;44.350;9.222;2022-12-24T03:27:33;101531.38;;;13.07;100.00
32324;BME280;25666;44.350;9.222;2022-12-24T03:30:01;101535.97;;;13.12;100.00
32324;BME280;25666;44.350;9.222;2022-12-24T03:32:29;101530.59;;;13.19;100.00
32324;BME280;25666;44.350;9.222;2022-12-24T03:34:55;101521.97;;;13.00;100.00
32324;BME280;25666;44.350;9.222;2022-12-24T03:37:21;101532.63;;;12.85;100.00
32324;BME280;25666;44.350;9.222;2022-12-24T03:39:47;101532.38;;;12.78;100.00
32324;BME280;25666;44.350;9.222;2022-12-24T03:42:12;101521.91;;;12.87;100.00
32324;BME280;25666;44.350;9.222;2022-12-24T03:44:38;101518.22;;;12.83;100.00
32324;BME280;25666;44.350;9.222;2022-12-24T03:47:03;101517.16;;;12.88;100.00
32324;BME280;25666;44.350;9.222;2022-12-24T03:49:29;101507.25;;;12.90;100.00
32324;BME280;25666;44.350;9.222;2022-12-24T03:51:55;101504.72;;;12.98;100.00
32324;BME280;25666;44.350;9.222;2022-12-24T03:54:20;101496.44;;;13.01;100.00
32324;BME280;25666;44.350;9.222;2022-12-24T03:56:47;101496.56;;;13.05;100.00
32324;BME280;25666;44.350;9.222;2022-12-24T03:59:13;101495.88;;;13.08;100.00
32324;BME280;25666;44.350;9.222;2022-12-24T04:01:39;101512.19;;;13.06;100.00
32324;BME280;25666;44.350;9.222;2022-12-24T04:04:05;101522.69;;;13.09;100.00
32324;BME280;25666;44.350;9.222;2022-12-24T04:06:31;101542.00;;;13.02;100.00
32324;BME280;25666;44.350;9.222;2022-12-24T04:08:57;101542.78;;;12.90;100.00
32324;BME280;25666;44.350;9.222;2022-12-24T04:11:30;101529.72;;;12.82;100.00
32324;BME280;25666;44.350;9.222;2022-12-24T04:13:56;101509.84;;;12.96;100.00
32324;BME280;25666;44.350;9.222;2022-12-24T04:16:26;101504.50;;;13.03;100.00
32324;BME280;25666;44.350;9.222;2022-12-24T04:18:52;101500.53;;;13.04;100.00
32324;BME280;25666;44.350;9.222;2022-12-24T04:21:20;101490.97;;;13.05;100.00
32324;BME280;25666;44.350;9.222;2022-12-24T04:23:49;101482.75;;;13.08;100.00
32324;BME280;25666;44.350;9.222;2022-12-24T04:26:15;101505.56;;;13.10;100.00
32324;BME280;25666;44.350;9.222;2022-12-24T04:28:41;101505.41;;;13.07;100.00
32324;BME280;25666;44.350;9.222;2022-12-24T04:31:09;101517.56;;;13.11;100.00
32324;BME280;25666;44.350;9.222;2022-12-24T04:33:36;101502.16;;;13.05;100.00
32324;BME280;25666;44.350;9.222;2022-12-24T04:36:03;101494.06;;;13.12;100.00
32324;BME280;25666;44.350;9.222;2022-12-24T04:38:30;101500.09;;;13.14;100.00
32324;BME280;25666;44.350;9.222;2022-12-24T04:43:28;101506.25;;;13.19;100.00
32324;BME280;25666;44.350;9.222;2022-12-24T04:45:54;101503.72;;;13.14;100.00
32324;BME280;25666;44.350;9.222;2022-12-24T04:48:20;101508.16;;;13.15;100.00
32324;BME280;25666;44.350;9.222;2022-12-24T04:50:45;101524.31;;;13.22;100.00
32324;BME280;25666;44.350;9.222;2022-12-24T04:53:11;101524.09;;;13.27;100.00
32324;BME280;25666;44.350;9.222;2022-12-24T04:55:43;101514.19;;;13.29;100.00
32324;BME280;25666;44.350;9.222;2022-12-24T04:58:09;101512.91;;;13.27;100.00
32324;BME280;25666;44.350;9.222;2022-12-24T05:00:35;101507.78;;;13.29;100.00
32324;BME280;25666;44.350;9.222;2022-12-24T05:03:00;101508.34;;;13.34;100.00
32324;BME280;25666;44.350;9.222;2022-12-24T05:05:26;101509.88;;;13.32;100.00
32324;BME280;25666;44.350;9.222;2022-12-24T05:07:51;101511.16;;;13.22;100.00
32324;BME280;25666;44.350;9.222;2022-12-24T05:10:18;101509.88;;;13.32;100.00
32324;BME280;25666;44.350;9.222;2022-12-24T05:12:43;101503.94;;;13.33;100.00
32324;BME280;25666;44.350;9.222;2022-12-24T05:15:09;101506.84;;;13.37;100.00
32324;BME280;25666;44.350;9.222;2022-12-24T05:17:35;101506.84;;;13.37;100.00
32324;BME280;25666;44.350;9.222;2022-12-24T05:20:00;101520.03;;;13.36;100.00
32324;BME280;25666;44.350;9.222;2022-12-24T05:22:26;101526.88;;;13.39;100.00
32324;BME280;25666;44.350;9.222;2022-12-24T05:25:10;101541.31;;;13.41;100.00
32324;BME280;25666;44.350;9.222;2022-12-24T05:27:54;101547.16;;;13.36;100.00
32324;BME280;25666;44.350;9.222;2022-12-24T05:30:20;101542.97;;;13.42;100.00
32324;BME280;25666;44.350;9.222;2022-12-24T05:32:46;101535.84;;;13.45;100.00
32324;BME280;25666;44.350;9.222;2022-12-24T05:35:11;101557.31;;;13.40;100.00
32324;BME280;25666;44.350;9.222;2022-12-24T05:37:38;101562.53;;;13.42;100.00
32324;BME280;25666;44.350;9.222;2022-12-24T05:40:04;101561.84;;;13.33;100.00
32324;BME280;25666;44.350;9.222;2022-12-24T05:42:29;101542.72;;;13.23;100.00
32324;BME280;25666;44.350;9.222;2022-12-24T05:44:55;101547.03;;;13.32;100.00
32324;BME280;25666;44.350;9.222;2022-12-24T05:47:20;101552.75;;;13.36;100.00
32324;BME280;25666;44.350;9.222;2022-12-24T05:49:46;101539.22;;;13.38;100.00
32324;BME280;25666;44.350;9.222;2022-12-24T05:52:11;101538.91;;;13.39;100.00
32324;BME280;25666;44.350;9.222;2022-12-24T05:54:37;101539.72;;;13.40;100.00
32324;BME280;25666;44.350;9.222;2022-12-24T05:57:02;101555.31;;;13.41;100.00
32324;BME280;25666;44.350;9.222;2022-12-24T05:59:28;101549.72;;;13.41;100.00
32324;BME280;25666;44.350;9.222;2022-12-24T06:01:53;101540.88;;;13.39;100.00
32324;BME280;25666;44.350;9.222;2022-12-24T06:04:19;101548.81;;;13.25;100.00
32324;BME280;25666;44.350;9.222;2022-12-24T06:06:44;101545.41;;;13.31;100.00
32324;BME280;25666;44.350;9.222;2022-12-24T06:09:10;101539.59;;;13.36;100.00
32324;BME280;25666;44.350;9.222;2022-12-24T06:11:35;101527.47;;;13.32;100.00
32324;BME280;25666;44.350;9.222;2022-12-24T06:14:01;101534.34;;;13.35;100.00
32324;BME280;25666;44.350;9.222;2022-12-24T06:16:26;101558.91;;;13.29;100.00
32324;BME280;25666;44.350;9.222;2022-12-24T06:18:52;101560.06;;;13.28;100.00
32324;BME280;25666;44.350;9.222;2022-12-24T06:21:18;101549.84;;;13.32;100.00
32324;BME280;25666;44.350;9.222;2022-12-24T06:23:44;101546.47;;;13.27;100.00
32324;BME280;25666;44.350;9.222;2022-12-24T06:26:13;101547.38;;;13.19;100.00
32324;BME280;25666;44.350;9.222;2022-12-24T06:28:39;101557.28;;;13.28;100.00
32324;BME280;25666;44.350;9.222;2022-12-24T06:31:06;101570.09;;;13.29;100.00
32324;BME280;25666;44.350;9.222;2022-12-24T06:33:35;101570.81;;;13.26;100.00
32324;BME280;25666;44.350;9.222;2022-12-24T06:36:00;101566.50;;;13.29;100.00
32324;BME280;25666;44.350;9.222;2022-12-24T06:38:29;101561.97;;;13.24;100.00
32324;BME280;25666;44.350;9.222;2022-12-24T06:40:55;101565.56;;;13.25;100.00
32324;BME280;25666;44.350;9.222;2022-12-24T06:43:20;101562.88;;;13.28;100.00
32324;BME280;25666;44.350;9.222;2022-12-24T06:45:46;101563.00;;;13.32;100.00
32324;BME280;25666;44.350;9.222;2022-12-24T06:48:12;101571.88;;;13.34;100.00
32324;BME280;25666;44.350;9.222;2022-12-24T06:50:39;101561.84;;;13.33;100.00
32324;BME280;25666;44.350;9.222;2022-12-24T06:53:04;101558.59;;;13.31;100.00
32324;BME280;25666;44.350;9.222;2022-12-24T06:55:31;101556.25;;;13.33;100.00
32324;BME280;25666;44.350;9.222;2022-12-24T06:57:56;101555.19;;;13.25;100.00
32324;BME280;25666;44.350;9.222;2022-12-24T07:00:22;101556.94;;;13.18;100.00
32324;BME280;25666;44.350;9.222;2022-12-24T07:02:47;101550.53;;;13.29;100.00
32324;BME280;25666;44.350;9.222;2022-12-24T07:05:13;101555.09;;;13.34;100.00
32324;BME280;25666;44.350;9.222;2022-12-24T07:07:41;101563.47;;;13.34;100.00
32324;BME280;25666;44.350;9.222;2022-12-24T07:10:09;101569.28;;;13.29;100.00
32324;BME280;25666;44.350;9.222;2022-12-24T07:12:35;101574.63;;;13.22;100.00
32324;BME280;25666;44.350;9.222;2022-12-24T07:15:00;101584.41;;;13.16;100.00
32324;BME280;25666;44.350;9.222;2022-12-24T07:17:26;101595.97;;;13.14;100.00
32324;BME280;25666;44.350;9.222;2022-12-24T07:19:51;101583.50;;;13.24;100.00
32324;BME280;25666;44.350;9.222;2022-12-24T07:22:17;101594.44;;;13.29;100.00
32324;BME280;25666;44.350;9.222;2022-12-24T07:24:42;101588.03;;;13.28;100.00
32324;BME280;25666;44.350;9.222;2022-12-24T07:27:08;101593.53;;;13.37;100.00
32324;BME280;25666;44.350;9.222;2022-12-24T07:29:33;101592.59;;;13.45;100.00
32324;BME280;25666;44.350;9.222;2022-12-24T07:31:59;101571.75;;;13.43;100.00
32324;BME280;25666;44.350;9.222;2022-12-24T07:34:25;101582.94;;;13.43;100.00
32324;BME280;25666;44.350;9.222;2022-12-24T07:36:50;101588.66;;;13.46;100.00
32324;BME280;25666;44.350;9.222;2022-12-24T07:39:16;101596.78;;;13.51;100.00
32324;BME280;25666;44.350;9.222;2022-12-24T07:41:41;101593.41;;;13.58;100.00
32324;BME280;25666;44.350;9.222;2022-12-24T07:44:11;101585.28;;;13.53;100.00
32324;BME280;25666;44.350;9.222;2022-12-24T07:46:37;101590.28;;;13.59;100.00
32324;BME280;25666;44.350;9.222;2022-12-24T07:49:03;101601.56;;;13.63;100.00
32324;BME280;25666;44.350;9.222;2022-12-24T07:51:29;101604.47;;;13.66;100.00
32324;BME280;25666;44.350;9.222;2022-12-24T07:53:54;101608.66;;;13.72;100.00
32324;BME280;25666;44.350;9.222;2022-12-24T07:56:20;101606.81;;;13.76;100.00
32324;BME280;25666;44.350;9.222;2022-12-24T07:58:45;101624.19;;;13.70;100.00
32324;BME280;25666;44.350;9.222;2022-12-24T08:01:11;101625.25;;;13.65;100.00
32324;BME280;25666;44.350;9.222;2022-12-24T08:03:37;101620.69;;;13.73;100.00
32324;BME280;25666;44.350;9.222;2022-12-24T08:06:03;101629.66;;;13.78;100.00
32324;BME280;25666;44.350;9.222;2022-12-24T08:08:28;101636.78;;;13.76;100.00
32324;BME280;25666;44.350;9.222;2022-12-24T08:11:00;101649.03;;;13.71;100.00
32324;BME280;25666;44.350;9.222;2022-12-24T08:13:26;101647.97;;;13.76;100.00
32324;BME280;25666;44.350;9.222;2022-12-24T08:15:51;101639.34;;;13.81;100.00
32324;BME280;25666;44.350;9.222;2022-12-24T08:18:17;101640.25;;;13.85;100.00
32324;BME280;25666;44.350;9.222;2022-12-24T08:20:50;101641.19;;;13.89;100.00
32324;BME280;25666;44.350;9.222;2022-12-24T08:23:16;101647.03;;;13.96;100.00
32324;BME280;25666;44.350;9.222;2022-12-24T08:25:43;101630.09;;;14.05;100.00
32324;BME280;25666;44.350;9.222;2022-12-24T08:28:09;101642.91;;;14.18;100.00
32324;BME280;25666;44.350;9.222;2022-12-24T08:30:34;101638.72;;;14.12;100.00
32324;BME280;25666;44.350;9.222;2022-12-24T08:33:00;101645.72;;;14.18;100.00
32324;BME280;25666;44.350;9.222;2022-12-24T08:35:26;101654.81;;;14.27;100.00
32324;BME280;25666;44.350;9.222;2022-12-24T08:37:51;101653.16;;;14.26;100.00
32324;BME280;25666;44.350;9.222;2022-12-24T08:40:17;101657.47;;;14.23;100.00
32324;BME280;25666;44.350;9.222;2022-12-24T08:42:43;101665.88;;;14.23;100.00
32324;BME280;25666;44.350;9.222;2022-12-24T08:45:08;101657.63;;;14.15;100.00
32324;BME280;25666;44.350;9.222;2022-12-24T08:47:36;101669.97;;;14.26;100.00
32324;BME280;25666;44.350;9.222;2022-12-24T08:50:03;101664.63;;;14.21;100.00
32324;BME280;25666;44.350;9.222;2022-12-24T08:52:28;101661.09;;;14.24;100.00
32324;BME280;25666;44.350;9.222;2022-12-24T08:54:54;101662.50;;;14.30;100.00
32324;BME280;25666;44.350;9.222;2022-12-24T08:57:19;101664.34;;;14.38;100.00
32324;BME280;25666;44.350;9.222;2022-12-24T08:59:45;101653.22;;;14.54;100.00
32324;BME280;25666;44.350;9.222;2022-12-24T09:02:10;101652.03;;;14.67;100.00
32324;BME280;25666;44.350;9.222;2022-12-24T09:04:39;101665.44;;;14.73;100.00
32324;BME280;25666;44.350;9.222;2022-12-24T09:07:08;101660.63;;;14.74;100.00
32324;BME280;25666;44.350;9.222;2022-12-24T09:09:34;101661.31;;;14.83;100.00
32324;BME280;25666;44.350;9.222;2022-12-24T09:12:00;101661.03;;;14.88;100.00
32324;BME280;25666;44.350;9.222;2022-12-24T09:14:26;101664.66;;;14.88;100.00
32324;BME280;25666;44.350;9.222;2022-12-24T09:16:51;101663.94;;;14.91;100.00
32324;BME280;25666;44.350;9.222;2022-12-24T09:19:17;101668.75;;;14.91;100.00
32324;BME280;25666;44.350;9.222;2022-12-24T09:21:42;101673.81;;;15.01;100.00
32324;BME280;25666;44.350;9.222;2022-12-24T09:24:08;101672.66;;;15.02;100.00
32324;BME280;25666;44.350;9.222;2022-12-24T09:26:33;101678.47;;;15.09;100.00
32324;BME280;25666;44.350;9.222;2022-12-24T09:29:01;101675.59;;;15.21;100.00
32324;BME280;25666;44.350;9.222;2022-12-24T09:31:27;101682.09;;;15.53;100.00
32324;BME280;25666;44.350;9.222;2022-12-24T09:33:53;101685.00;;;15.57;100.00
32324;BME280;25666;44.350;9.222;2022-12-24T09:36:19;101678.56;;;15.56;100.00
32324;BME280;25666;44.350;9.222;2022-12-24T09:38:44;101692.13;;;15.54;100.00
32324;BME280;25666;44.350;9.222;2022-12-24T09:43:38;101698.84;;;15.65;100.00
32324;BME280;25666;44.350;9.222;2022-12-24T09:46:19;101692.41;;;15.80;100.00
32324;BME280;25666;44.350;9.222;2022-12-24T09:48:51;101687.88;;;15.76;100.00
32324;BME280;25666;44.350;9.222;2022-12-24T09:51:38;101696.97;;;15.69;100.00
32324;BME280;25666;44.350;9.222;2022-12-24T09:54:24;101693.88;;;15.59;100.00
32324;BME280;25666;44.350;9.222;2022-12-24T09:56:53;101694.69;;;15.59;100.00
32324;BME280;25666;44.350;9.222;2022-12-24T09:59:40;101697.75;;;15.54;100.00
32324;BME280;25666;44.350;9.222;2022-12-24T10:02:10;101692.13;;;15.54;100.00
32324;BME280;25666;44.350;9.222;2022-12-24T10:04:36;101679.19;;;15.49;100.00
32324;BME280;25666;44.350;9.222;2022-12-24T10:12:29;101687.16;;;15.47;100.00
32324;BME280;25666;44.350;9.222;2022-12-24T10:20:41;101701.66;;;15.49;100.00
32324;BME280;25666;44.350;9.222;2022-12-24T10:23:26;101716.84;;;15.48;100.00
32324;BME280;25666;44.350;9.222;2022-12-24T10:26:11;101712.88;;;15.49;100.00
32324;BME280;25666;44.350;9.222;2022-12-24T10:31:10;101721.09;;;15.58;100.00
32324;BME280;25666;44.350;9.222;2022-12-24T10:33:42;101717.84;;;15.56;100.00
32324;BME280;25666;44.350;9.222;2022-12-24T10:36:15;101716.13;;;15.51;100.00
32324;BME280;25666;44.350;9.222;2022-12-24T10:38:42;101718.22;;;15.54;100.00
32324;BME280;25666;44.350;9.222;2022-12-24T10:41:08;101719.66;;;15.48;100.00
32324;BME280;25666;44.350;9.222;2022-12-24T10:43:34;101717.09;;;15.43;100.00
32324;BME280;25666;44.350;9.222;2022-12-24T10:46:04;101718.00;;;15.47;100.00
32324;BME280;25666;44.350;9.222;2022-12-24T10:48:36;101726.91;;;15.49;100.00
32324;BME280;25666;44.350;9.222;2022-12-24T10:51:12;101727.34;;;15.51;100.00
32324;BME280;25666;44.350;9.222;2022-12-24T10:53:46;101716.03;;;15.48;100.00
32324;BME280;25666;44.350;9.222;2022-12-24T10:56:16;101709.25;;;15.49;100.00
32324;BME280;25666;44.350;9.222;2022-12-24T10:58:51;101711.56;;;15.47;100.00
32324;BME280;25666;44.350;9.222;2022-12-24T11:01:17;101704.66;;;15.57;100.00
32324;BME280;25666;44.350;9.222;2022-12-24T11:03:43;101697.13;;;15.61;100.00
32324;BME280;25666;44.350;9.222;2022-12-24T11:06:10;101708.34;;;15.61;100.00
32324;BME280;25666;44.350;9.222;2022-12-24T11:08:43;101713.31;;;15.67;100.00
32324;BME280;25666;44.350;9.222;2022-12-24T11:11:18;101725.38;;;15.68;100.00
32324;BME280;25666;44.350;9.222;2022-12-24T11:16:28;101730.38;;;15.74;100.00
32324;BME280;25666;44.350;9.222;2022-12-24T11:18:57;101733.25;;;15.78;100.00
32324;BME280;25666;44.350;9.222;2022-12-24T11:21:29;101716.88;;;15.80;100.00
32324;BME280;25666;44.350;9.222;2022-12-24T11:23:58;101711.78;;;15.85;100.00
32324;BME280;25666;44.350;9.222;2022-12-24T11:26:27;101697.50;;;15.90;100.00
32324;BME280;25666;44.350;9.222;2022-12-24T11:31:31;101699.91;;;15.92;100.00
32324;BME280;25666;44.350;9.222;2022-12-24T11:34:00;101695.56;;;15.94;100.00
32324;BME280;25666;44.350;9.222;2022-12-24T11:36:25;101676.09;;;16.01;100.00
32324;BME280;25666;44.350;9.222;2022-12-24T11:38:57;101661.31;;;16.04;100.00
32324;BME280;25666;44.350;9.222;2022-12-24T11:41:24;101655.34;;;16.06;100.00
32324;BME280;25666;44.350;9.222;2022-12-24T11:43:58;101667.13;;;16.12;100.00
32324;BME280;25666;44.350;9.222;2022-12-24T11:46:38;101657.88;;;16.11;100.00
32324;BME280;25666;44.350;9.222;2022-12-24T11:51:36;101678.34;;;16.12;100.00
32324;BME280;25666;44.350;9.222;2022-12-24T11:54:07;101672.81;;;16.15;100.00
32324;BME280;25666;44.350;9.222;2022-12-24T11:56:44;101671.56;;;16.13;100.00
32324;BME280;25666;44.350;9.222;2022-12-24T11:59:30;101677.19;;;16.13;100.00
32324;BME280;25666;44.350;9.222;2022-12-24T12:04:49;101680.25;;;16.07;100.00
32324;BME280;25666;44.350;9.222;2022-12-24T12:07:25;101688.53;;;16.00;100.00
32324;BME280;25666;44.350;9.222;2022-12-24T12:10:00;101665.41;;;15.91;100.00
32324;BME280;25666;44.350;9.222;2022-12-24T12:12:30;101668.50;;;15.86;100.00
32324;BME280;25666;44.350;9.222;2022-12-24T12:15:04;101678.06;;;16.01;100.00
32324;BME280;25666;44.350;9.222;2022-12-24T12:20:24;101686.78;;;15.96;100.00
32324;BME280;25666;44.350;9.222;2022-12-24T12:23:14;101683.63;;;15.97;100.00
32324;BME280;25666;44.350;9.222;2022-12-24T12:25:49;101685.13;;;16.11;100.00
32324;BME280;25666;44.350;9.222;2022-12-24T12:28:34;101687.72;;;16.00;100.00
32324;BME280;25666;44.350;9.222;2022-12-24T12:31:08;101682.44;;;15.98;100.00
32324;BME280;25666;44.350;9.222;2022-12-24T12:33:40;101698.13;;;15.99;100.00
32324;BME280;25666;44.350;9.222;2022-12-24T12:36:10;101687.72;;;16.00;100.00
32324;BME280;25666;44.350;9.222;2022-12-24T12:38:39;101678.81;;;15.98;100.00
32324;BME280;25666;44.350;9.222;2022-12-24T12:57:43;101675.59;;;16.31;100.00
32324;BME280;25666;44.350;9.222;2022-12-24T13:00:16;101675.59;;;16.31;100.00
32324;BME280;25666;44.350;9.222;2022-12-24T13:10:57;101678.88;;;16.17;100.00
32324;BME280;25666;44.350;9.222;2022-12-24T13:21:28;101667.56;;;15.98;100.00
32324;BME280;25666;44.350;9.222;2022-12-24T13:26:41;101665.41;;;15.91;100.00
32324;BME280;25666;44.350;9.222;2022-12-24T13:29:41;101653.66;;;15.86;100.00
32324;BME280;25666;44.350;9.222;2022-12-24T13:34:53;101662.88;;;15.86;100.00
32324;BME280;25666;44.350;9.222;2022-12-24T13:37:32;101674.13;;;15.86;100.00
32324;BME280;25666;44.350;9.222;2022-12-24T13:45:49;101688.88;;;15.83;100.00
32324;BME280;25666;44.350;9.222;2022-12-24T13:50:46;101696.13;;;15.84;100.00
32324;BME280;25666;44.350;9.222;2022-12-24T13:53:32;101696.41;;;15.79;100.00
32324;BME280;25666;44.350;9.222;2022-12-24T13:58:39;101710.72;;;15.74;100.00
32324;BME280;25666;44.350;9.222;2022-12-24T14:01:32;101707.47;;;15.72;100.00
32324;BME280;25666;44.350;9.222;2022-12-24T14:04:01;101700.56;;;15.70;100.00
32324;BME280;25666;44.350;9.222;2022-12-24T14:06:34;101706.56;;;15.68;100.00
32324;BME280;25666;44.350;9.222;2022-12-24T14:09:13;101711.34;;;15.68;100.00
32324;BME280;25666;44.350;9.222;2022-12-24T14:16:59;101714.97;;;15.68;100.00
32324;BME280;25666;44.350;9.222;2022-12-24T14:19:40;101714.97;;;15.68;100.00
32324;BME280;25666;44.350;9.222;2022-12-24T14:24:42;101718.50;;;15.81;100.00
32324;BME280;25666;44.350;9.222;2022-12-24T14:30:04;101702.47;;;15.81;100.00
32324;BME280;25666;44.350;9.222;2022-12-24T14:32:39;101710.53;;;15.83;100.00
32324;BME280;25666;44.350;9.222;2022-12-24T14:35:19;101704.81;;;15.79;100.00
32324;BME280;25666;44.350;9.222;2022-12-24T14:37:51;101708.00;;;15.78;100.00
32324;BME280;25666;44.350;9.222;2022-12-24T14:40:25;101707.09;;;15.74;100.00
32324;BME280;25666;44.350;9.222;2022-12-24T14:45:38;101700.56;;;15.70;100.00